Terminal Aerodrome Forecast
Issued by NWS Mt. Holly, NJ

Home | Current Version | Previous Version | Text Only | Print | Product List | Glossary On
Versions: 1 2 3 4 5 6 7 8 9 10 11 12 13 14
000
FTUS41 KPHI 270520
TAFABE
TAF
KABE 270520Z 2706/2806 VRB03KT P6SM BKN070
     FM271000 28003KT P6SM SCT070
     FM271600 25010KT P6SM VCSH BKN070
     FM272200 28008KT P6SM SCT060
     FM280100 29005KT P6SM FEW070=

USA.gov is the U.S. government's official web portal to all federal, state and local government web resources and services.